Time;durP1;ratioP1;P1;durP2;ratioP2;P2;SDS_P1;SDS_P2;PMS_P1;PMS_P2;Temp;Humidity;BMP_temperature;BMP_pressure;BME280_temperature;BME280_humidity;BME280_pressure;Samples;Min_cycle;Max_cycle;Signal;HPM_P1;HPM_P2
2024/03/10 00:00:54;;;;;;;27.30;24.40;;;5.30;99.90;;;;;;5033229;28;20448;-77
2024/03/10 00:03:22;;;;;;;29.53;24.57;;;5.30;99.90;;;;;;5032934;28;20848;-77
2024/03/10 00:05:52;;;;;;;28.77;23.83;;;5.20;99.90;;;;;;5033271;28;20498;-77
2024/03/10 00:08:20;;;;;;;29.27;25.03;;;5.20;99.90;;;;;;5032828;28;20447;-76
2024/03/10 00:10:48;;;;;;;29.47;25.70;;;5.20;99.90;;;;;;5032717;28;20538;-77
2024/03/10 00:13:17;;;;;;;30.07;25.27;;;5.20;99.90;;;;;;5032827;28;20462;-77
2024/03/10 00:15:45;;;;;;;28.10;25.20;;;5.20;99.90;;;;;;5032739;28;20874;-77
2024/03/10 00:18:13;;;;;;;27.27;23.90;;;5.10;99.90;;;;;;5032801;28;20483;-77
2024/03/10 00:20:44;;;;;;;28.33;25.20;;;5.10;99.90;;;;;;5032808;28;20451;-77
2024/03/10 00:23:14;;;;;;;30.63;27.43;;;5.10;99.90;;;;;;5032601;28;20467;-77
2024/03/10 00:25:43;;;;;;;29.60;25.57;;;5.10;99.90;;;;;;5032705;28;20541;-77
2024/03/10 00:28:12;;;;;;;28.97;24.27;;;5.10;99.90;;;;;;5032363;28;20553;-77
2024/03/10 00:30:40;;;;;;;29.13;24.40;;;5.10;99.90;;;;;;5033744;28;20466;-76
2024/03/10 00:33:08;;;;;;;30.03;26.23;;;5.00;99.90;;;;;;5032344;28;20472;-77
2024/03/10 00:35:37;;;;;;;29.20;26.10;;;5.00;99.90;;;;;;5032361;28;20498;-77
2024/03/10 00:38:05;;;;;;;29.30;25.30;;;5.00;99.90;;;;;;5033560;28;20451;-77
2024/03/10 00:40:37;;;;;;;31.40;26.90;;;5.00;99.90;;;;;;5032349;28;20475;-76
2024/03/10 00:43:06;;;;;;;28.47;25.07;;;5.00;99.90;;;;;;5033443;28;20465;-77
2024/03/10 00:45:34;;;;;;;29.23;25.93;;;5.00;99.90;;;;;;5032291;28;20451;-77
2024/03/10 00:48:03;;;;;;;28.97;25.97;;;5.00;99.90;;;;;;5033725;28;20498;-77
2024/03/10 00:50:31;;;;;;;30.70;25.37;;;4.90;99.90;;;;;;5032075;28;20516;-77
2024/03/10 00:53:00;;;;;;;30.70;27.40;;;4.90;99.90;;;;;;5031662;28;20483;-76
2024/03/10 00:55:29;;;;;;;28.67;23.40;;;4.90;99.90;;;;;;5032006;28;20447;-76
2024/03/10 00:57:58;;;;;;;31.17;27.00;;;4.90;99.90;;;;;;5033319;28;20451;-76
2024/03/10 01:00:28;;;;;;;28.83;25.83;;;4.90;99.90;;;;;;5032072;28;20482;-77
2024/03/10 01:02:56;;;;;;;31.00;25.30;;;4.90;99.90;;;;;;5031901;28;20470;-77
2024/03/10 01:05:25;;;;;;;28.40;25.33;;;4.80;99.90;;;;;;5032247;28;20509;-76
2024/03/10 01:07:54;;;;;;;30.10;26.97;;;4.80;99.90;;;;;;5031902;28;20817;-77
2024/03/10 01:10:23;;;;;;;29.93;25.23;;;4.80;99.90;;;;;;5031880;28;20467;-76
2024/03/10 01:12:51;;;;;;;29.10;26.00;;;4.80;99.90;;;;;;5031818;28;20936;-76
2024/03/10 01:15:21;;;;;;;32.22;25.20;;;4.80;99.90;;;;;;5031549;28;20445;-77
2024/03/10 01:17:49;;;;;;;31.47;28.03;;;4.80;99.90;;;;;;5031830;28;20224;-76
2024/03/10 01:20:18;;;;;;;31.80;28.00;;;4.80;99.90;;;;;;5031660;28;20470;-77
2024/03/10 01:22:46;;;;;;;32.27;27.37;;;4.80;99.90;;;;;;5031899;28;20826;-76
2024/03/10 01:25:15;;;;;;;33.53;29.17;;;4.80;99.90;;;;;;5031811;28;20477;-77
2024/03/10 01:27:43;;;;;;;33.57;28.30;;;4.70;99.90;;;;;;5031930;28;20485;-76
2024/03/10 01:30:13;;;;;;;32.23;26.40;;;4.70;99.90;;;;;;5033120;28;20513;-76
2024/03/10 01:32:43;;;;;;;31.50;26.07;;;4.70;99.90;;;;;;5031530;28;20447;-77
2024/03/10 01:35:11;;;;;;;30.03;25.47;;;4.70;99.90;;;;;;5031884;28;20447;-77
2024/03/10 01:37:40;;;;;;;32.77;27.83;;;4.70;99.90;;;;;;5031572;28;20970;-76
2024/03/10 01:40:09;;;;;;;31.53;26.80;;;4.70;99.90;;;;;;5031584;28;20467;-76
2024/03/10 01:42:38;;;;;;;32.07;27.67;;;4.70;99.90;;;;;;5032746;28;20994;-76
2024/03/10 01:45:08;;;;;;;34.17;29.33;;;4.70;99.90;;;;;;5031620;28;20447;-76
2024/03/10 01:47:37;;;;;;;33.73;27.63;;;4.70;99.90;;;;;;5031568;28;20498;-77
2024/03/10 01:50:08;;;;;;;34.63;28.87;;;4.60;99.90;;;;;;5031458;28;20506;-76
2024/03/10 01:52:37;;;;;;;35.30;31.00;;;4.60;99.90;;;;;;5032711;28;20427;-77
2024/03/10 01:55:07;;;;;;;32.47;26.67;;;4.70;99.90;;;;;;5031766;28;20545;-76
2024/03/10 01:57:36;;;;;;;31.00;27.40;;;4.70;99.90;;;;;;5032950;28;20896;-76
2024/03/10 02:00:06;;;;;;;32.87;28.03;;;4.60;99.90;;;;;;5032201;28;20521;-77
2024/03/10 02:02:40;;;;;;;34.87;27.10;;;4.60;99.90;;;;;;5033012;28;20459;-77
2024/03/10 02:05:10;;;;;;;34.37;27.03;;;4.60;99.90;;;;;;5032863;28;20471;-77
2024/03/10 02:07:39;;;;;;;35.60;29.83;;;4.60;99.90;;;;;;5036439;28;20455;-76
2024/03/10 02:10:09;;;;;;;34.37;27.70;;;4.60;99.90;;;;;;5035092;28;20562;-77
2024/03/10 02:12:38;;;;;;;33.00;27.10;;;4.60;99.90;;;;;;5036560;28;20475;-76
2024/03/10 02:15:08;;;;;;;37.20;32.30;;;4.60;99.90;;;;;;5036370;28;20447;-78
2024/03/10 02:17:37;;;;;;;35.33;28.10;;;4.60;99.90;;;;;;5035212;28;20455;-77
2024/03/10 02:20:19;;;;;;;34.10;30.40;;;4.60;99.90;;;;;;5036464;28;20454;-77
2024/03/10 02:22:50;;;;;;;33.07;27.20;;;4.60;99.90;;;;;;5035361;28;20497;-77
2024/03/10 02:25:24;;;;;;;35.83;29.23;;;4.60;99.90;;;;;;5035482;28;20530;-77
2024/03/10 02:27:54;;;;;;;36.50;29.73;;;4.60;99.90;;;;;;5036081;28;20451;-77
2024/03/10 02:30:31;;;;;;;36.90;30.60;;;4.50;99.90;;;;;;5034881;28;20517;-77
2024/03/10 02:49:35;;;;;;;38.50;33.83;;;4.50;99.90;;;;;;5034249;28;20557;-77
2024/03/10 02:52:03;;;;;;;36.03;29.90;;;4.50;99.90;;;;;;5034226;28;20443;-77
2024/03/10 02:54:32;;;;;;;36.50;29.67;;;4.40;99.90;;;;;;5034586;28;20541;-77
2024/03/10 02:57:00;;;;;;;36.97;30.87;;;4.40;99.90;;;;;;5034133;28;20442;-77
2024/03/10 02:59:30;;;;;;;37.63;30.10;;;4.40;99.90;;;;;;5034336;28;20490;-76
2024/03/10 03:01:59;;;;;;;37.47;31.40;;;4.40;99.90;;;;;;5034026;28;20943;-76
2024/03/10 03:04:28;;;;;;;38.10;32.03;;;4.40;99.90;;;;;;5034199;28;20471;-77
2024/03/10 03:06:56;;;;;;;40.13;34.30;;;4.50;99.90;;;;;;5035105;28;20481;-77
2024/03/10 03:09:25;;;;;;;37.40;31.70;;;4.40;99.90;;;;;;5033873;28;20476;-76
2024/03/10 03:11:53;;;;;;;39.27;32.50;;;4.40;99.90;;;;;;5034052;28;20455;-76
2024/03/10 03:14:21;;;;;;;39.03;33.03;;;4.40;99.90;;;;;;5033587;28;20446;-77
2024/03/10 03:16:51;;;;;;;37.23;32.90;;;4.50;99.90;;;;;;5034869;28;20857;-77
2024/03/10 03:19:19;;;;;;;38.63;33.23;;;4.50;99.90;;;;;;5033792;28;20486;-76
2024/03/10 03:21:47;;;;;;;34.80;27.90;;;4.50;99.90;;;;;;5033614;28;20450;-76
2024/03/10 03:24:16;;;;;;;41.33;33.40;;;4.40;99.90;;;;;;5033401;28;20522;-77
2024/03/10 03:26:44;;;;;;;39.53;31.97;;;4.50;99.90;;;;;;5033383;28;20459;-77
2024/03/10 03:29:13;;;;;;;38.10;31.90;;;4.40;99.90;;;;;;5034584;28;20459;-77
2024/03/10 03:31:42;;;;;;;43.17;33.10;;;4.40;99.90;;;;;;5033409;28;20538;-76
2024/03/10 03:34:12;;;;;;;41.80;33.77;;;4.40;99.90;;;;;;5033262;28;20510;-77
2024/03/10 03:36:41;;;;;;;42.77;33.23;;;4.40;99.90;;;;;;5033425;28;20440;-76
2024/03/10 03:39:11;;;;;;;41.20;34.00;;;4.40;99.90;;;;;;5033185;28;20831;-77
2024/03/10 03:41:39;;;;;;;39.63;34.93;;;4.40;99.90;;;;;;5034396;28;20815;-77
2024/03/10 03:44:08;;;;;;;43.07;35.43;;;4.40;99.90;;;;;;5033069;28;20991;-76
2024/03/10 03:46:36;;;;;;;44.33;34.33;;;4.40;99.90;;;;;;5033055;28;20521;-77
2024/03/10 03:49:04;;;;;;;39.97;34.93;;;4.40;99.90;;;;;;5033023;28;20474;-76
2024/03/10 03:51:34;;;;;;;40.07;33.10;;;4.30;99.90;;;;;;5033186;28;20534;-77
2024/03/10 03:54:05;;;;;;;41.60;35.40;;;4.30;99.90;;;;;;5034332;28;20936;-77
2024/03/10 03:56:33;;;;;;;41.40;35.37;;;4.30;99.90;;;;;;5034803;28;20892;-77
2024/03/10 03:59:03;;;;;;;43.80;35.47;;;4.30;99.90;;;;;;5034219;28;20959;-77
2024/03/10 04:01:34;;;;;;;41.03;34.60;;;4.30;99.90;;;;;;5034181;28;20857;-76
2024/03/10 04:04:03;;;;;;;45.20;35.30;;;4.30;99.90;;;;;;5032676;28;20471;-76
2024/03/10 04:06:31;;;;;;;43.00;37.43;;;4.30;99.90;;;;;;5032605;28;20480;-76
2024/03/10 04:09:02;;;;;;;42.70;35.40;;;4.30;99.90;;;;;;5032583;28;21054;-76
2024/03/10 04:11:31;;;;;;;40.23;32.63;;;4.30;99.90;;;;;;5032624;28;20443;-76
2024/03/10 04:14:00;;;;;;;39.27;31.30;;;4.40;99.90;;;;;;5032602;28;20474;-76
2024/03/10 04:16:29;;;;;;;44.27;33.93;;;4.30;99.90;;;;;;5033922;28;20439;-76
2024/03/10 04:18:58;;;;;;;40.50;33.60;;;4.30;99.90;;;;;;5032579;28;20471;-76
2024/03/10 04:21:28;;;;;;;42.57;35.90;;;4.30;99.90;;;;;;5033892;28;20441;-76
2024/03/10 04:23:56;;;;;;;47.00;38.53;;;4.30;99.90;;;;;;5032317;28;20467;-76
2024/03/10 04:26:27;;;;;;;39.20;31.60;;;4.30;99.90;;;;;;5033683;28;20854;-76
2024/03/10 04:28:56;;;;;;;40.70;31.90;;;4.30;99.90;;;;;;5033018;28;20466;-76
2024/03/10 04:31:24;;;;;;;41.17;34.47;;;4.30;99.90;;;;;;5033614;28;20435;-76
2024/03/10 04:33:53;;;;;;;43.17;33.83;;;4.30;99.90;;;;;;5032168;28;20546;-76
2024/03/10 04:36:21;;;;;;;41.17;34.27;;;4.30;99.90;;;;;;5033706;28;20948;-76
2024/03/10 04:38:49;;;;;;;43.33;34.40;;;4.30;99.90;;;;;;5032189;28;20495;-76
2024/03/10 04:41:18;;;;;;;47.70;36.60;;;4.30;99.90;;;;;;5032177;28;20545;-76
2024/03/10 04:43:47;;;;;;;43.23;36.20;;;4.30;99.90;;;;;;5032104;28;20539;-76
2024/03/10 04:46:17;;;;;;;42.37;34.70;;;4.30;99.90;;;;;;5032084;28;20501;-76
2024/03/10 04:48:46;;;;;;;41.00;35.67;;;4.30;99.90;;;;;;5033696;28;20467;-76
2024/03/10 04:51:15;;;;;;;42.63;36.00;;;4.30;99.90;;;;;;5033328;28;20434;-76
2024/03/10 04:53:44;;;;;;;44.90;35.40;;;4.30;99.90;;;;;;5032042;28;21021;-76
2024/03/10 04:56:13;;;;;;;41.93;37.30;;;4.30;99.90;;;;;;5032154;28;20447;-76
2024/03/10 04:58:41;;;;;;;43.40;35.47;;;4.30;99.90;;;;;;5031910;28;21073;-76
2024/03/10 05:01:12;;;;;;;43.23;33.23;;;4.30;99.90;;;;;;5033525;28;20434;-76
2024/03/10 05:03:41;;;;;;;44.20;37.30;;;4.30;99.90;;;;;;5033533;28;20427;-76
2024/03/10 05:06:09;;;;;;;44.60;34.30;;;4.20;99.90;;;;;;5031834;28;20471;-76
2024/03/10 05:08:38;;;;;;;39.77;34.53;;;4.20;99.90;;;;;;5033132;28;20463;-76
2024/03/10 05:11:06;;;;;;;40.90;34.50;;;4.20;99.90;;;;;;5031934;28;20454;-77
2024/03/10 05:13:35;;;;;;;46.70;35.47;;;4.20;99.90;;;;;;5033068;28;20431;-77
2024/03/10 05:16:05;;;;;;;43.07;34.83;;;4.20;99.90;;;;;;5033072;28;20445;-76
2024/03/10 05:18:35;;;;;;;46.43;34.23;;;4.20;99.90;;;;;;5031790;28;20850;-76
2024/03/10 05:21:03;;;;;;;44.63;33.93;;;4.10;99.90;;;;;;5031753;28;20455;-76
2024/03/10 05:23:32;;;;;;;41.83;33.50;;;4.10;99.90;;;;;;5031729;28;20975;-76
2024/03/10 05:26:00;;;;;;;44.63;34.73;;;4.10;99.90;;;;;;5031640;28;20980;-76
2024/03/10 05:28:28;;;;;;;45.37;37.20;;;4.10;99.90;;;;;;5031651;28;20447;-76
2024/03/10 05:30:57;;;;;;;42.70;33.73;;;4.10;99.90;;;;;;5032975;28;20525;-76
2024/03/10 05:33:25;;;;;;;42.73;36.10;;;4.10;99.90;;;;;;5032824;28;20878;-76
2024/03/10 05:35:55;;;;;;;41.87;37.03;;;4.10;99.90;;;;;;5031697;28;21026;-76
2024/03/10 05:38:23;;;;;;;46.00;35.43;;;4.10;99.90;;;;;;5032804;28;20442;-76
2024/03/10 05:40:52;;;;;;;47.33;35.57;;;4.10;99.90;;;;;;5034548;28;20944;-76
2024/03/10 05:43:21;;;;;;;42.07;34.83;;;4.10;99.90;;;;;;5035428;28;20490;-76
2024/03/10 05:45:49;;;;;;;47.13;36.83;;;4.10;99.90;;;;;;5036559;28;20558;-76
2024/03/10 05:48:18;;;;;;;42.73;37.60;;;4.10;99.90;;;;;;5036522;28;20430;-76
2024/03/10 05:50:46;;;;;;;49.33;36.40;;;4.10;99.90;;;;;;5036791;28;20527;-76
2024/03/10 05:53:17;;;;;;;45.30;36.10;;;4.10;99.90;;;;;;5036465;28;20798;-76
2024/03/10 05:55:46;;;;;;;44.57;34.10;;;4.10;99.90;;;;;;5036742;28;20513;-76
2024/03/10 05:58:16;;;;;;;48.43;35.50;;;4.10;99.90;;;;;;5035051;28;20439;-76
2024/03/10 06:00:45;;;;;;;45.10;37.00;;;4.10;99.90;;;;;;5036868;28;20526;-76
2024/03/10 06:03:13;;;;;;;44.87;34.57;;;4.00;99.90;;;;;;5036808;28;20446;-76
2024/03/10 06:05:42;;;;;;;46.13;36.53;;;4.00;99.90;;;;;;5034907;28;20471;-76
2024/03/10 06:08:11;;;;;;;46.63;40.23;;;4.10;99.90;;;;;;5036205;28;20484;-76
2024/03/10 06:10:41;;;;;;;43.93;37.97;;;4.00;99.90;;;;;;5034968;28;20791;-76
2024/03/10 06:13:10;;;;;;;44.67;34.87;;;4.00;99.90;;;;;;5034903;28;20443;-76
2024/03/10 06:15:39;;;;;;;47.60;35.30;;;4.00;99.90;;;;;;5034815;28;21005;-76
2024/03/10 06:18:18;;;;;;;46.30;36.20;;;4.10;99.90;;;;;;5034761;28;20516;-76
2024/03/10 06:26:21;;;;;;;45.90;34.30;;;4.00;99.90;;;;;;5034590;28;20463;-76
2024/03/10 06:28:50;;;;;;;45.80;34.47;;;4.00;99.90;;;;;;5034594;28;20478;-76
2024/03/10 06:31:19;;;;;;;43.97;37.17;;;4.00;99.90;;;;;;5034519;28;20474;-76
2024/03/10 06:33:49;;;;;;;46.40;35.10;;;4.10;99.90;;;;;;5035668;28;20966;-76
2024/03/10 06:36:18;;;;;;;42.77;37.73;;;4.10;99.90;;;;;;5034431;28;20482;-76
2024/03/10 06:38:46;;;;;;;45.40;36.37;;;4.10;99.90;;;;;;5034333;28;20463;-76
2024/03/10 06:41:15;;;;;;;46.50;38.60;;;4.10;99.90;;;;;;5034286;28;20492;-76
2024/03/10 06:43:45;;;;;;;48.00;36.80;;;4.10;99.90;;;;;;5036133;28;20431;-76
2024/03/10 06:46:14;;;;;;;46.27;36.57;;;4.20;99.90;;;;;;5035542;28;20463;-76
2024/03/10 06:48:42;;;;;;;48.63;35.03;;;4.10;99.90;;;;;;5034173;28;20494;-76
2024/03/10 06:51:10;;;;;;;45.90;39.73;;;4.20;99.90;;;;;;5033347;28;20463;-76
2024/03/10 06:53:39;;;;;;;43.30;36.33;;;4.30;99.90;;;;;;5035319;28;20451;-76
2024/03/10 06:56:08;;;;;;;44.50;39.23;;;4.40;99.90;;;;;;5035092;28;20451;-79
2024/03/10 06:58:37;;;;;;;43.90;37.97;;;4.40;99.90;;;;;;5037889;28;20810;-80
2024/03/10 07:01:07;;;;;;;45.10;37.17;;;4.50;99.90;;;;;;5037367;28;20459;-79
2024/03/10 07:03:36;;;;;;;42.07;35.83;;;4.50;99.90;;;;;;5036651;28;20493;-79
2024/03/10 07:06:06;;;;;;;44.63;33.83;;;4.50;99.90;;;;;;5036484;28;20471;-79
2024/03/10 07:08:35;;;;;;;44.10;34.50;;;4.60;99.90;;;;;;5037752;28;21049;-79
2024/03/10 07:11:04;;;;;;;43.00;35.83;;;4.60;99.90;;;;;;5039985;28;20443;-79
2024/03/10 07:13:33;;;;;;;42.73;34.50;;;4.70;99.90;;;;;;5040050;28;20435;-79
2024/03/10 07:16:02;;;;;;;45.97;39.47;;;4.70;99.90;;;;;;5038518;28;20447;-79
2024/03/10 07:18:32;;;;;;;41.90;35.93;;;4.70;99.90;;;;;;5037734;28;20439;-79
2024/03/10 07:21:00;;;;;;;42.97;37.37;;;4.80;99.90;;;;;;5038106;28;20455;-79
2024/03/10 07:23:28;;;;;;;45.03;37.33;;;4.80;99.90;;;;;;5038184;28;20447;-79
2024/03/10 07:25:57;;;;;;;43.33;37.80;;;4.90;99.90;;;;;;5038334;28;20496;-79
2024/03/10 07:28:26;;;;;;;42.37;34.07;;;4.90;99.90;;;;;;5038584;28;20471;-79
2024/03/10 07:30:55;;;;;;;43.77;36.67;;;5.00;99.90;;;;;;5040551;28;20846;-79
2024/03/10 07:33:23;;;;;;;45.10;36.80;;;5.00;99.90;;;;;;5037795;28;20498;-79
2024/03/10 07:35:53;;;;;;;40.63;36.23;;;5.10;99.90;;;;;;5038688;28;20459;-79
2024/03/10 07:38:22;;;;;;;43.00;38.30;;;5.10;99.90;;;;;;5037610;28;20451;-79
2024/03/10 07:40:50;;;;;;;40.33;35.70;;;5.20;99.90;;;;;;5036713;28;20460;-79
2024/03/10 07:43:25;;;;;;;40.77;35.60;;;5.20;99.90;;;;;;5037881;28;20418;-79
2024/03/10 07:45:53;;;;;;;42.40;37.80;;;5.30;99.90;;;;;;5035978;28;20464;-79
2024/03/10 07:48:22;;;;;;;43.37;38.70;;;5.30;99.90;;;;;;5035960;28;20451;-79
2024/03/10 07:50:50;;;;;;;41.23;36.70;;;5.40;99.90;;;;;;5035784;28;20455;-79
2024/03/10 07:53:21;;;;;;;44.80;40.07;;;5.50;99.90;;;;;;5036658;28;20434;-78
2024/03/10 07:55:50;;;;;;;43.07;38.50;;;5.50;99.90;;;;;;5035399;28;20439;-79
2024/03/10 07:58:18;;;;;;;43.83;39.33;;;5.60;99.90;;;;;;5035605;28;20474;-79
2024/03/10 08:00:46;;;;;;;41.63;37.20;;;5.60;99.90;;;;;;5035077;28;20459;-78
2024/03/10 08:03:14;;;;;;;44.17;39.57;;;5.60;99.90;;;;;;5034877;28;20564;-78
2024/03/10 08:05:43;;;;;;;42.73;38.23;;;5.70;99.90;;;;;;5034969;28;20501;-79
2024/03/10 08:08:11;;;;;;;45.60;41.00;;;5.70;99.90;;;;;;5037715;28;20435;-79
2024/03/10 08:10:41;;;;;;;43.35;38.92;;;5.70;99.90;;;;;;5037015;28;20453;-79
2024/03/10 08:13:09;;;;;;;46.50;41.70;;;5.90;99.90;;;;;;5039139;28;20202;-79
2024/03/10 08:15:39;;;;;;;44.20;39.80;;;5.90;99.90;;;;;;5039711;28;20454;-79
2024/03/10 08:18:08;;;;;;;43.70;39.40;;;6.00;99.90;;;;;;5040333;28;20485;-80
2024/03/10 08:20:37;;;;;;;44.63;40.03;;;6.00;99.90;;;;;;5040621;28;20476;-80
2024/03/10 08:23:06;;;;;;;44.73;40.23;;;6.00;99.90;;;;;;5039902;28;20444;-79
2024/03/10 08:25:35;;;;;;;44.47;39.97;;;6.00;99.90;;;;;;5039859;28;20441;-79
2024/03/10 08:28:05;;;;;;;41.03;36.57;;;6.10;99.90;;;;;;5040131;28;20528;-79
2024/03/10 08:30:33;;;;;;;43.27;38.73;;;6.00;99.90;;;;;;5039001;28;20469;-79
2024/03/10 08:33:04;;;;;;;43.60;39.20;;;6.10;99.90;;;;;;5022338;28;20476;-79
2024/03/10 08:35:32;;;;;;;44.83;40.43;;;6.20;99.90;;;;;;5034272;28;20501;-75
2024/03/10 08:38:01;;;;;;;42.60;38.50;;;6.20;99.90;;;;;;5033593;28;20451;-76
2024/03/10 08:40:29;;;;;;;44.10;39.63;;;6.20;99.90;;;;;;5034036;28;20465;-76
2024/03/10 08:42:58;;;;;;;43.47;38.93;;;6.30;99.90;;;;;;5032363;28;20532;-76
2024/03/10 08:45:28;;;;;;;43.13;39.00;;;6.30;99.90;;;;;;5032568;28;20456;-76
2024/03/10 08:47:57;;;;;;;44.47;40.27;;;6.40;99.90;;;;;;5032768;28;20466;-76
2024/03/10 08:50:28;;;;;;;44.77;40.47;;;6.40;99.90;;;;;;5032428;28;20510;-76
2024/03/10 08:52:56;;;;;;;44.03;39.57;;;6.40;99.90;;;;;;5034224;28;20511;-77
2024/03/10 08:55:25;;;;;;;41.63;37.63;;;6.50;99.90;;;;;;5033151;28;20954;-77
2024/03/10 08:57:53;;;;;;;44.47;40.07;;;6.60;99.90;;;;;;5033459;28;20454;-77
2024/03/10 09:00:21;;;;;;;43.37;39.27;;;6.60;99.90;;;;;;5033118;28;20488;-76
2024/03/10 09:02:51;;;;;;;43.50;39.20;;;6.70;99.90;;;;;;5033270;28;20512;-76
2024/03/10 09:05:19;;;;;;;44.97;40.57;;;6.70;99.90;;;;;;5033079;28;20508;-77
2024/03/10 09:07:49;;;;;;;44.73;40.50;;;6.80;99.90;;;;;;5034857;28;20986;-77
2024/03/10 09:10:18;;;;;;;44.00;39.67;;;6.80;99.90;;;;;;5034888;28;20493;-77
2024/03/10 09:12:47;;;;;;;41.80;37.77;;;6.90;99.90;;;;;;5034967;28;20797;-76
2024/03/10 09:15:15;;;;;;;43.73;39.60;;;7.00;99.90;;;;;;5035494;28;20950;-76
2024/03/10 09:17:44;;;;;;;44.53;40.33;;;7.00;99.90;;;;;;5038474;28;20960;-76
2024/03/10 09:20:15;;;;;;;41.97;37.97;;;7.00;99.90;;;;;;5036896;28;20499;-76
2024/03/10 09:22:44;;;;;;;41.00;37.10;;;7.10;99.90;;;;;;5037356;28;20449;-77
2024/03/10 09:25:20;;;;;;;42.07;38.07;;;7.10;99.90;;;;;;5037243;28;20450;-76
2024/03/10 09:27:51;;;;;;;42.20;37.90;;;7.20;99.90;;;;;;5037071;28;20469;-76
2024/03/10 09:30:21;;;;;;;41.87;37.97;;;7.20;99.90;;;;;;5036455;28;20477;-76
2024/03/10 09:32:50;;;;;;;42.93;38.83;;;7.30;99.90;;;;;;5037560;28;20442;-76
2024/03/10 09:35:23;;;;;;;43.90;39.70;;;7.30;99.90;;;;;;5036316;28;20508;-76
2024/03/10 09:37:53;;;;;;;43.73;39.53;;;7.40;99.90;;;;;;5037819;28;20433;-76
2024/03/10 09:40:28;;;;;;;43.30;39.13;;;7.40;99.90;;;;;;5036376;28;20470;-76
2024/03/10 09:42:59;;;;;;;42.27;38.33;;;7.50;99.90;;;;;;5036040;28;20439;-77
2024/03/10 09:45:29;;;;;;;41.90;37.90;;;7.60;99.90;;;;;;5037175;28;20542;-77
2024/03/10 09:48:01;;;;;;;43.73;39.73;;;7.60;99.90;;;;;;5036914;28;20478;-76
2024/03/10 09:50:33;;;;;;;46.47;42.10;;;7.70;99.90;;;;;;5035881;28;20474;-76
2024/03/10 09:53:01;;;;;;;44.57;40.27;;;7.70;99.90;;;;;;5037052;28;20765;-76
2024/03/10 09:55:31;;;;;;;41.70;37.80;;;7.80;99.90;;;;;;5036904;28;20950;-76
2024/03/10 09:58:10;;;;;;;41.03;37.23;;;7.90;99.90;;;;;;5035635;28;20505;-76
2024/03/10 10:00:39;;;;;;;49.20;44.60;;;8.00;99.90;;;;;;5037084;28;20478;-76
2024/03/10 10:03:11;;;;;;;47.70;43.20;;;8.00;99.90;;;;;;5035588;28;20461;-76
2024/03/10 10:05:46;;;;;;;43.37;39.47;;;8.10;99.90;;;;;;5035362;28;20482;-76
2024/03/10 10:08:15;;;;;;;40.63;36.70;;;8.10;99.90;;;;;;5036396;28;20454;-77
2024/03/10 10:10:49;;;;;;;39.83;36.13;;;8.20;99.90;;;;;;5035574;28;20913;-77
2024/03/10 10:13:24;;;;;;;41.30;37.20;;;8.20;99.90;;;;;;5036886;28;20521;-76
2024/03/10 10:15:52;;;;;;;44.30;40.20;;;8.30;99.90;;;;;;5035379;28;20502;-77
2024/03/10 10:18:22;;;;;;;40.13;36.33;;;8.30;99.90;;;;;;5035468;28;20494;-76
2024/03/10 10:20:53;;;;;;;40.93;37.13;;;8.40;99.90;;;;;;5036620;28;20836;-76
2024/03/10 10:23:23;;;;;;;40.50;36.70;;;8.50;99.90;;;;;;5035200;28;20549;-76
2024/03/10 10:25:53;;;;;;;39.53;35.73;;;8.60;99.90;;;;;;5035621;28;20907;-77
2024/03/10 10:28:22;;;;;;;39.47;35.90;;;8.60;99.90;;;;;;5036597;28;20463;-76
2024/03/10 10:30:50;;;;;;;37.37;34.10;;;8.70;99.90;;;;;;5036544;28;20477;-77
2024/03/10 10:33:19;;;;;;;38.83;35.23;;;8.80;99.90;;;;;;5035435;28;20490;-76
2024/03/10 10:35:47;;;;;;;38.10;34.60;;;8.80;99.90;;;;;;5035789;28;20960;-77
2024/03/10 10:38:20;;;;;;;38.80;35.20;;;8.80;99.90;;;;;;5035755;28;20438;-76
2024/03/10 10:40:51;;;;;;;39.50;35.97;;;8.90;99.90;;;;;;5035502;28;20446;-77
2024/03/10 10:43:21;;;;;;;40.80;37.00;;;8.90;99.90;;;;;;5035501;28;20451;-76
2024/03/10 10:45:49;;;;;;;37.60;34.27;;;9.00;99.90;;;;;;5036821;28;20439;-76
2024/03/10 10:48:20;;;;;;;38.13;34.77;;;9.00;99.90;;;;;;5036171;28;20474;-77
2024/03/10 10:50:48;;;;;;;39.23;35.70;;;9.10;99.90;;;;;;5036673;28;20439;-77
2024/03/10 10:53:18;;;;;;;39.43;36.03;;;9.10;99.90;;;;;;5034978;28;20458;-77
2024/03/10 10:55:47;;;;;;;37.83;34.33;;;9.20;99.90;;;;;;5035071;28;20486;-76
2024/03/10 10:58:17;;;;;;;36.73;33.43;;;9.20;99.90;;;;;;5034819;28;20475;-78
2024/03/10 11:00:50;;;;;;;37.30;34.10;;;9.30;99.90;;;;;;5034758;28;20439;-77
2024/03/10 11:03:24;;;;;;;39.43;35.83;;;9.30;99.90;;;;;;5034925;28;20455;-77
2024/03/10 11:06:26;;;;;;;36.93;33.47;;;9.30;99.90;;;;;;5034903;28;20449;-77
2024/03/10 11:08:56;;;;;;;36.07;32.70;;;9.40;99.90;;;;;;5035046;28;20478;-77
2024/03/10 11:11:48;;;;;;;36.70;33.30;;;9.40;99.90;;;;;;5036886;28;20430;-78
2024/03/10 11:14:21;;;;;;;34.57;31.37;;;9.50;99.90;;;;;;5038067;28;21033;-78
2024/03/10 11:16:50;;;;;;;34.43;31.40;;;9.50;99.90;;;;;;5038345;28;20530;-77
2024/03/10 11:19:21;;;;;;;33.70;30.80;;;9.60;99.90;;;;;;5038590;28;20987;-77
2024/03/10 11:21:51;;;;;;;27.07;24.47;;;9.70;99.90;;;;;;5037750;28;20439;-78
2024/03/10 11:24:25;;;;;;;34.23;31.10;;;9.70;99.90;;;;;;5037815;28;20455;-78
2024/03/10 11:27:18;;;;;;;35.90;32.80;;;9.80;99.90;;;;;;5037776;28;20810;-78
2024/03/10 11:29:48;;;;;;;36.20;33.10;;;9.90;99.90;;;;;;5038004;28;20881;-77
2024/03/10 11:32:34;;;;;;;33.90;30.80;;;10.00;99.90;;;;;;5036922;28;20451;-77
2024/03/10 11:35:08;;;;;;;33.57;30.67;;;10.10;99.90;;;;;;5037267;28;20842;-78
2024/03/10 11:37:38;;;;;;;31.63;28.83;;;10.20;99.90;;;;;;5039026;28;20463;-78
2024/03/10 11:40:15;;;;;;;34.60;31.53;;;10.30;99.90;;;;;;5037730;28;20471;-77
2024/03/10 11:42:45;;;;;;;34.13;31.00;;;10.30;99.90;;;;;;5036764;28;20439;-77
2024/03/10 11:45:13;;;;;;;33.17;30.17;;;10.40;99.90;;;;;;5038085;28;20537;-78
2024/03/10 11:47:44;;;;;;;31.90;29.00;;;10.50;99.90;;;;;;5038185;28;20443;-78
2024/03/10 11:50:14;;;;;;;30.60;27.80;;;10.50;99.90;;;;;;5035932;28;20459;-77
2024/03/10 11:52:42;;;;;;;32.13;29.40;;;10.60;99.90;;;;;;5035251;28;20451;-79
2024/03/10 11:55:14;;;;;;;33.43;30.53;;;10.60;99.90;;;;;;5035350;28;20455;-77
2024/03/10 11:57:42;;;;;;;30.87;28.10;;;10.70;99.90;;;;;;5034999;28;20492;-77
2024/03/10 12:00:15;;;;;;;30.83;28.00;;;10.80;99.90;;;;;;5034299;28;20983;-77
2024/03/10 12:02:44;;;;;;;28.70;26.10;;;10.80;99.90;;;;;;5033861;28;20451;-77
2024/03/10 12:05:15;;;;;;;29.30;26.60;;;10.90;99.90;;;;;;5033975;28;20455;-77
2024/03/10 12:07:48;;;;;;;29.70;27.00;;;10.90;99.90;;;;;;5034801;28;20454;-77
2024/03/10 12:10:24;;;;;;;27.97;25.53;;;11.10;99.90;;;;;;5035963;28;20470;-78
2024/03/10 12:12:52;;;;;;;29.93;27.20;;;11.10;99.90;;;;;;5034848;28;20537;-77
2024/03/10 12:15:22;;;;;;;28.50;26.00;;;11.20;99.90;;;;;;5036304;28;20439;-77
2024/03/10 12:17:50;;;;;;;28.87;26.20;;;11.20;99.90;;;;;;5034795;28;20555;-77
2024/03/10 12:20:20;;;;;;;28.80;26.03;;;11.30;99.90;;;;;;5036993;28;20495;-77
2024/03/10 12:22:49;;;;;;;28.63;25.97;;;11.30;99.90;;;;;;5040653;28;20477;-77
2024/03/10 12:25:19;;;;;;;28.13;25.63;;;11.30;99.90;;;;;;5042266;28;20479;-77
2024/03/10 12:27:49;;;;;;;29.40;26.80;;;11.40;99.90;;;;;;5044233;28;20467;-76
2024/03/10 12:30:21;;;;;;;28.00;25.60;;;11.40;99.90;;;;;;5035450;28;20479;-77
2024/03/10 12:32:50;;;;;;;27.67;25.27;;;11.40;99.90;;;;;;5034958;28;20465;-77
2024/03/10 12:35:21;;;;;;;28.50;26.00;;;11.40;99.90;;;;;;5033533;28;20494;-77
2024/03/10 12:37:50;;;;;;;29.93;27.27;;;11.40;99.90;;;;;;5033278;28;20451;-77
2024/03/10 12:40:19;;;;;;;28.33;25.70;;;11.50;99.90;;;;;;5033385;28;20466;-77
2024/03/10 12:42:50;;;;;;;28.40;25.83;;;11.50;99.90;;;;;;5033597;28;20477;-77
2024/03/10 12:45:19;;;;;;;30.43;27.63;;;11.50;99.90;;;;;;5033593;28;20447;-78
2024/03/10 12:47:50;;;;;;;30.10;27.43;;;11.50;99.90;;;;;;5033418;28;20487;-77
2024/03/10 12:50:19;;;;;;;30.67;27.87;;;11.50;99.90;;;;;;5033745;28;20474;-77
2024/03/10 12:52:47;;;;;;;28.90;26.33;;;11.60;99.90;;;;;;5034702;28;20431;-77
2024/03/10 12:55:18;;;;;;;32.10;29.30;;;11.60;99.90;;;;;;5033501;28;20458;-77
2024/03/10 12:57:46;;;;;;;32.20;29.20;;;11.60;99.90;;;;;;5033269;28;20435;-77
2024/03/10 13:00:22;;;;;;;29.13;26.60;;;11.60;99.90;;;;;;5033139;28;20467;-77
2024/03/10 13:02:57;;;;;;;27.90;25.40;;;11.70;99.90;;;;;;5035494;28;20445;-78
2024/03/10 13:05:28;;;;;;;28.33;25.63;;;11.70;99.90;;;;;;5039297;28;20471;-77
2024/03/10 13:07:58;;;;;;;27.00;24.60;;;11.70;99.90;;;;;;5039427;28;20447;-77
2024/03/10 13:10:28;;;;;;;27.47;24.97;;;11.80;99.90;;;;;;5038286;28;20494;-77